createdAt,value
2023-02-21T00:01:04.582Z,5.12
2023-02-21T00:03:53.034Z,5.00
2023-02-21T00:06:39.555Z,5.07
2023-02-21T00:09:25.647Z,5.00
2023-02-21T00:12:11.422Z,5.12
2023-02-21T00:14:57.887Z,4.95
2023-02-21T00:17:44.034Z,4.96
2023-02-21T00:20:30.211Z,5.02
2023-02-21T00:23:16.123Z,5.00
2023-02-21T00:26:02.261Z,4.88
2023-02-21T00:28:51.266Z,4.81
2023-02-21T00:31:38.003Z,4.80
2023-02-21T00:34:24.269Z,4.89
2023-02-21T00:37:13.250Z,4.92
2023-02-21T00:39:59.689Z,4.88
2023-02-21T00:42:45.913Z,4.83
2023-02-21T00:45:32.106Z,4.81
2023-02-21T00:48:17.982Z,4.85
2023-02-21T00:51:04.033Z,4.85
2023-02-21T00:53:50.175Z,4.92
2023-02-21T00:56:36.499Z,4.98
2023-02-21T00:59:22.608Z,5.00
2023-02-21T01:02:08.894Z,5.11
2023-02-21T01:04:54.896Z,5.07
2023-02-21T01:07:40.988Z,4.96
2023-02-21T01:10:26.990Z,4.85
2023-02-21T01:13:13.323Z,4.84
2023-02-21T01:15:59.469Z,4.84
2023-02-21T01:18:45.526Z,4.80
2023-02-21T01:21:35.971Z,4.82
2023-02-21T01:24:24.191Z,4.85
2023-02-21T01:27:10.406Z,4.85
2023-02-21T01:29:56.260Z,4.82
2023-02-21T01:32:44.126Z,4.83
2023-02-21T01:35:30.374Z,4.81
2023-02-21T01:38:16.720Z,4.80
2023-02-21T01:41:02.683Z,4.88
2023-02-21T01:43:49.047Z,4.84
2023-02-21T01:46:39.310Z,4.78
2023-02-21T01:49:32.712Z,4.81
2023-02-21T01:52:20.589Z,4.73
2023-02-21T01:55:11.251Z,4.69
2023-02-21T01:57:58.447Z,4.97
2023-02-21T02:00:45.683Z,4.99
2023-02-21T02:03:35.697Z,4.98
2023-02-21T02:06:28.106Z,4.81
2023-02-21T02:09:14.088Z,4.65
2023-02-21T02:12:11.968Z,4.68
2023-02-21T02:14:51.604Z,4.52
2023-02-21T02:17:43.881Z,4.29
2023-02-21T02:20:38.529Z,4.25
2023-02-21T02:23:51.010Z,4.51
2023-02-21T02:26:56.036Z,4.59
2023-02-21T02:29:57.863Z,4.28
2023-02-21T02:32:47.197Z,3.90
2023-02-21T02:35:35.082Z,3.80
2023-02-21T02:38:08.650Z,3.64
2023-02-21T02:40:51.224Z,3.73
2023-02-21T02:43:31.957Z,3.80
2023-02-21T02:46:11.255Z,3.86
2023-02-21T02:48:50.871Z,3.99
2023-02-21T02:51:19.161Z,4.09
2023-02-21T02:53:47.567Z,4.00
2023-02-21T02:56:17.777Z,3.93
2023-02-21T02:58:54.355Z,3.96
2023-02-21T03:01:51.816Z,3.99
2023-02-21T03:04:19.625Z,4.10
2023-02-21T03:07:02.309Z,4.09
2023-02-21T03:09:42.473Z,4.09
2023-02-21T03:12:39.146Z,4.16
2023-02-21T03:15:17.446Z,4.11
2023-02-21T03:18:00.097Z,4.04
2023-02-21T03:20:29.397Z,4.13
2023-02-21T03:22:58.442Z,4.25
2023-02-21T03:25:29.269Z,4.24
2023-02-21T03:28:00.996Z,4.21
2023-02-21T03:30:34.938Z,4.34
2023-02-21T03:33:03.273Z,4.32
2023-02-21T03:35:31.055Z,4.28
2023-02-21T03:38:00.252Z,3.98
2023-02-21T03:40:31.303Z,3.66
2023-02-21T03:43:03.142Z,3.37
2023-02-21T03:45:35.721Z,3.53
2023-02-21T03:48:25.993Z,3.27
2023-02-21T03:51:00.237Z,3.43
2023-02-21T03:53:33.002Z,3.55
2023-02-21T03:56:01.810Z,3.43
2023-02-21T03:58:38.467Z,3.37
2023-02-21T04:01:06.372Z,3.29
2023-02-21T04:03:33.674Z,3.49
2023-02-21T04:06:05.645Z,3.41
2023-02-21T04:08:33.985Z,3.33
2023-02-21T04:11:01.758Z,3.34
2023-02-21T04:13:32.568Z,3.37
2023-02-21T04:16:00.999Z,3.34
2023-02-21T04:18:29.018Z,3.37
2023-02-21T04:21:00.159Z,3.41
2023-02-21T04:23:27.822Z,3.62
2023-02-21T04:25:55.962Z,3.49
2023-02-21T04:28:30.596Z,3.54
2023-02-21T04:30:58.185Z,3.38
2023-02-21T04:33:25.901Z,3.35
2023-02-21T04:35:53.612Z,3.32
2023-02-21T04:38:31.676Z,3.29
2023-02-21T04:40:59.179Z,3.32
2023-02-21T04:43:26.998Z,3.59
2023-02-21T04:45:54.592Z,3.55
2023-02-21T04:48:22.064Z,3.44
2023-02-21T04:50:49.404Z,3.29
2023-02-21T04:53:16.670Z,3.22
2023-02-21T04:55:44.209Z,3.04
2023-02-21T04:58:11.582Z,2.83
2023-02-21T05:00:38.986Z,2.82
2023-02-21T05:03:06.196Z,2.86
2023-02-21T05:05:33.545Z,2.80
2023-02-21T05:08:01.031Z,2.75
2023-02-21T05:10:43.573Z,2.89
2023-02-21T05:13:13.623Z,2.81
2023-02-21T05:15:41.505Z,2.79
2023-02-21T05:18:09.300Z,2.81
2023-02-21T05:20:36.833Z,2.83
2023-02-21T05:23:13.022Z,2.94
2023-02-21T05:25:41.596Z,2.98
2023-02-21T05:28:09.134Z,2.93
2023-02-21T05:30:36.689Z,2.87
2023-02-21T05:33:04.293Z,2.95
2023-02-21T05:35:31.824Z,2.85
2023-02-21T05:37:59.304Z,3.04
2023-02-21T05:40:26.735Z,3.18
2023-02-21T05:42:54.062Z,3.08
2023-02-21T05:45:21.677Z,3.04
2023-02-21T05:47:49.221Z,2.94
2023-02-21T05:50:16.983Z,2.79
2023-02-21T05:52:44.396Z,2.81
2023-02-21T05:55:11.841Z,2.69
2023-02-21T05:57:39.521Z,2.55
2023-02-21T06:00:07.570Z,2.58
2023-02-21T06:02:39.316Z,2.58
2023-02-21T06:05:07.372Z,2.93
2023-02-21T06:07:34.965Z,2.81
2023-02-21T06:10:03.400Z,2.79
2023-02-21T06:12:31.010Z,2.74
2023-02-21T06:14:58.569Z,2.58
2023-02-21T06:17:25.986Z,2.53
2023-02-21T06:19:55.724Z,2.67
2023-02-21T06:22:23.230Z,2.84
2023-02-21T06:24:52.105Z,2.94
2023-02-21T06:27:19.753Z,2.92
2023-02-21T06:29:47.219Z,2.86
2023-02-21T06:32:14.627Z,2.84
2023-02-21T06:34:44.050Z,2.91
2023-02-21T06:37:11.431Z,2.87
2023-02-21T06:39:39.358Z,2.85
2023-02-21T06:42:06.748Z,2.79
2023-02-21T06:44:34.394Z,2.84
2023-02-21T06:47:02.197Z,3.05
2023-02-21T06:49:29.855Z,3.03
2023-02-21T06:51:57.194Z,2.93
2023-02-21T06:54:25.278Z,2.96
2023-02-21T06:56:52.726Z,3.04
2023-02-21T06:59:20.086Z,3.04
2023-02-21T07:01:47.417Z,3.08
2023-02-21T07:04:15.080Z,3.02
2023-02-21T07:06:42.566Z,3.21
2023-02-21T07:09:09.953Z,3.30
2023-02-21T07:11:37.169Z,3.22
2023-02-21T07:14:04.770Z,3.16
2023-02-21T07:16:32.434Z,3.18
2023-02-21T07:19:00.048Z,3.20
2023-02-21T07:21:27.799Z,3.20
2023-02-21T07:23:55.305Z,3.33
2023-02-21T07:26:22.769Z,3.33
2023-02-21T07:28:50.212Z,3.46
2023-02-21T07:31:19.506Z,3.60
2023-02-21T07:33:47.289Z,3.67
2023-02-21T07:36:15.071Z,3.75
2023-02-21T07:38:42.590Z,3.86
2023-02-21T07:41:10.111Z,3.98
2023-02-21T07:43:39.323Z,4.12
2023-02-21T07:46:17.427Z,4.27
2023-02-21T07:48:45.018Z,4.42
2023-02-21T07:51:12.757Z,4.52
2023-02-21T07:53:41.274Z,4.56
2023-02-21T07:56:08.769Z,4.62
2023-02-21T07:58:39.522Z,4.70
2023-02-21T08:01:07.883Z,4.59
2023-02-21T08:03:35.808Z,4.55
2023-02-21T08:06:03.808Z,4.52
2023-02-21T08:08:31.422Z,4.55
2023-02-21T08:10:59.052Z,4.52
2023-02-21T08:13:26.662Z,4.53
2023-02-21T08:15:54.450Z,4.56
2023-02-21T08:18:24.644Z,4.65
2023-02-21T08:20:57.031Z,4.58
2023-02-21T08:23:24.743Z,4.56
2023-02-21T08:25:52.216Z,4.66
2023-02-21T08:28:19.588Z,4.79
2023-02-21T08:30:46.794Z,4.91
2023-02-21T08:33:20.160Z,5.06
2023-02-21T08:35:47.809Z,5.31
2023-02-21T08:38:15.062Z,5.49
2023-02-21T08:40:42.337Z,5.72
2023-02-21T08:43:10.045Z,5.98
2023-02-21T08:45:37.809Z,6.23
2023-02-21T08:48:05.242Z,6.46
2023-02-21T08:50:33.582Z,6.71
2023-02-21T08:53:00.999Z,6.92
2023-02-21T08:55:28.886Z,7.19
2023-02-21T08:57:56.539Z,7.40
2023-02-21T09:00:28.554Z,7.61
2023-02-21T09:03:00.099Z,7.89
2023-02-21T09:05:30.207Z,8.14
2023-02-21T09:08:01.923Z,8.17
2023-02-21T09:10:34.742Z,8.12
2023-02-21T09:13:04.920Z,8.19
2023-02-21T09:15:32.464Z,8.32
2023-02-21T09:18:01.131Z,8.50
2023-02-21T09:20:28.620Z,8.71
2023-02-21T09:22:56.233Z,8.87
2023-02-21T09:25:25.209Z,9.11
2023-02-21T09:27:54.807Z,9.19
2023-02-21T09:30:27.004Z,9.19
2023-02-21T09:32:56.002Z,9.30
2023-02-21T09:35:23.633Z,9.41
2023-02-21T09:37:51.582Z,9.47
2023-02-21T09:40:34.451Z,9.48
2023-02-21T09:43:04.171Z,9.60
2023-02-21T09:45:34.964Z,9.66
2023-02-21T09:48:11.267Z,9.82
2023-02-21T09:50:49.217Z,9.93
2023-02-21T09:53:22.303Z,10.03
2023-02-21T09:55:54.260Z,10.09
2023-02-21T09:58:22.073Z,10.20
2023-02-21T10:00:49.545Z,10.41
2023-02-21T10:03:49.400Z,10.55
2023-02-21T10:06:43.854Z,10.61
2023-02-21T10:09:18.123Z,10.53
2023-02-21T10:11:59.127Z,10.67
2023-02-21T10:14:38.711Z,10.90
2023-02-21T10:17:29.524Z,11.08
2023-02-21T10:20:04.546Z,11.20
2023-02-21T10:22:35.459Z,11.25
2023-02-21T10:25:21.335Z,11.41
2023-02-21T10:27:50.577Z,11.39
2023-02-21T10:30:35.656Z,11.28
2023-02-21T10:33:06.765Z,11.16
2023-02-21T10:35:38.418Z,10.99
2023-02-21T10:38:14.017Z,10.94
2023-02-21T10:40:48.440Z,11.00
2023-02-21T10:43:23.704Z,11.11
2023-02-21T10:45:59.181Z,10.89
2023-02-21T10:48:31.232Z,10.67
2023-02-21T10:51:11.324Z,10.56
2023-02-21T10:53:40.397Z,10.55
2023-02-21T10:56:15.203Z,10.63
2023-02-21T10:58:59.825Z,10.73
2023-02-21T11:01:30.498Z,10.94
2023-02-21T11:04:01.762Z,11.10
2023-02-21T11:06:40.128Z,11.24
2023-02-21T11:09:31.687Z,11.40
2023-02-21T11:12:20.405Z,11.50
2023-02-21T11:14:51.134Z,11.63
2023-02-21T11:17:22.400Z,11.70
2023-02-21T11:19:58.340Z,11.76
2023-02-21T11:22:35.355Z,11.87
2023-02-21T11:25:15.912Z,11.83
2023-02-21T11:27:46.355Z,11.92
2023-02-21T11:30:21.480Z,12.00
2023-02-21T11:32:57.178Z,12.08
2023-02-21T11:35:28.075Z,12.17
2023-02-21T11:38:10.144Z,12.32
2023-02-21T11:40:49.268Z,12.44
2023-02-21T11:43:29.060Z,12.36
2023-02-21T11:46:19.963Z,12.20
2023-02-21T11:48:53.372Z,12.05
2023-02-21T11:51:32.860Z,11.96
2023-02-21T11:54:00.696Z,11.86
2023-02-21T11:56:54.483Z,11.63
2023-02-21T11:59:34.006Z,11.52
2023-02-21T12:02:23.098Z,11.47
2023-02-21T12:05:27.571Z,11.46
2023-02-21T12:08:13.643Z,11.46
2023-02-21T12:11:25.665Z,11.43
2023-02-21T12:14:02.501Z,11.41
2023-02-21T12:16:43.218Z,11.44
2023-02-21T12:19:48.489Z,11.51
2023-02-21T12:22:37.852Z,11.58
2023-02-21T12:25:23.961Z,11.61
2023-02-21T12:27:51.558Z,11.75
2023-02-21T12:30:37.618Z,11.73
2023-02-21T12:33:27.013Z,11.72
2023-02-21T12:36:02.332Z,11.73
2023-02-21T12:38:52.283Z,11.73
2023-02-21T12:41:55.720Z,11.78
2023-02-21T12:44:27.318Z,11.78
2023-02-21T12:47:21.378Z,11.81
2023-02-21T12:49:57.861Z,11.87
2023-02-21T12:52:34.421Z,11.99
2023-02-21T12:55:22.291Z,12.14
2023-02-21T12:58:11.709Z,12.22
2023-02-21T13:00:47.881Z,12.29
2023-02-21T13:04:06.298Z,12.25
2023-02-21T13:06:47.379Z,12.45
2023-02-21T13:09:29.885Z,12.53
2023-02-21T13:12:21.170Z,12.63
2023-02-21T13:15:01.104Z,12.80
2023-02-21T13:17:28.858Z,12.94
2023-02-21T13:20:07.784Z,12.99
2023-02-21T13:23:19.036Z,13.04
2023-02-21T13:26:17.250Z,13.04
2023-02-21T13:28:46.740Z,13.05
2023-02-21T13:31:24.343Z,13.01
2023-02-21T13:33:56.797Z,12.89
2023-02-21T13:36:31.896Z,12.86
2023-02-21T13:39:11.852Z,12.80
2023-02-21T13:41:41.761Z,12.81
2023-02-21T13:44:16.841Z,12.80
2023-02-21T13:46:44.300Z,12.78
2023-02-21T13:49:37.589Z,12.72
2023-02-21T13:52:22.522Z,12.63
2023-02-21T13:55:10.452Z,12.58
2023-02-21T13:57:46.859Z,12.48
2023-02-21T14:00:21.814Z,12.38
2023-02-21T14:03:00.319Z,12.47
2023-02-21T14:05:51.000Z,12.19
2023-02-21T14:08:24.525Z,12.15
2023-02-21T14:10:55.475Z,12.03
2023-02-21T14:13:35.149Z,11.95
2023-02-21T14:16:08.475Z,11.87
2023-02-21T14:18:38.653Z,11.80
2023-02-21T14:21:34.902Z,11.78
2023-02-21T14:24:11.673Z,11.68
2023-02-21T14:26:54.330Z,11.61
2023-02-21T14:29:44.329Z,11.57
2023-02-21T14:32:11.919Z,11.62
2023-02-21T14:34:48.558Z,11.52
2023-02-21T14:37:22.146Z,11.47
2023-02-21T14:39:53.206Z,11.58
2023-02-21T14:42:24.191Z,11.55
2023-02-21T14:45:09.848Z,11.73
2023-02-21T14:48:04.794Z,11.91
2023-02-21T14:50:50.967Z,11.79
2023-02-21T14:53:46.340Z,11.90
2023-02-21T14:56:27.662Z,11.83
2023-02-21T14:59:25.357Z,11.83
2023-02-21T15:02:16.976Z,11.85
2023-02-21T15:04:54.755Z,11.91
2023-02-21T15:07:32.733Z,11.86
2023-02-21T15:10:11.178Z,11.80
2023-02-21T15:13:02.289Z,11.73
2023-02-21T15:15:42.220Z,11.73
2023-02-21T15:18:25.274Z,11.69
2023-02-21T15:21:10.864Z,11.76
2023-02-21T15:23:40.988Z,11.75
2023-02-21T15:26:24.729Z,11.69
2023-02-21T15:29:14.191Z,11.55
2023-02-21T15:31:45.408Z,11.52
2023-02-21T15:34:19.144Z,11.50
2023-02-21T15:36:53.415Z,11.55
2023-02-21T15:39:29.798Z,11.51
2023-02-21T15:42:00.078Z,11.55
2023-02-21T15:44:33.410Z,11.62
2023-02-21T15:47:07.941Z,11.63
2023-02-21T15:49:41.004Z,11.66
2023-02-21T15:52:36.719Z,11.69
2023-02-21T15:55:19.635Z,11.74
2023-02-21T15:58:14.015Z,11.69
2023-02-21T16:00:44.348Z,11.70
2023-02-21T16:03:33.843Z,11.69
2023-02-21T16:06:15.817Z,11.73
2023-02-21T16:08:58.902Z,11.74
2023-02-21T16:11:39.064Z,11.79
2023-02-21T16:14:19.522Z,11.81
2023-02-21T16:16:53.785Z,11.80
2023-02-21T16:19:23.426Z,11.90
2023-02-21T16:21:51.204Z,11.91
2023-02-21T16:24:31.131Z,11.93
2023-02-21T16:27:12.097Z,12.02
2023-02-21T16:29:39.782Z,11.97
2023-02-21T16:32:21.263Z,11.99
2023-02-21T16:34:51.597Z,11.94
2023-02-21T16:37:19.105Z,11.90
2023-02-21T16:39:46.714Z,11.86
2023-02-21T16:42:14.545Z,11.82
2023-02-21T16:44:46.027Z,11.79
2023-02-21T16:47:15.406Z,11.75
2023-02-21T16:49:44.189Z,11.71
2023-02-21T16:52:15.990Z,11.73
2023-02-21T16:54:43.767Z,11.60
2023-02-21T16:57:11.669Z,11.51
2023-02-21T16:59:39.514Z,11.46
2023-02-21T17:02:14.030Z,11.41
2023-02-21T17:04:41.462Z,11.31
2023-02-21T17:07:11.878Z,11.27
2023-02-21T17:09:39.581Z,11.20
2023-02-21T17:12:08.047Z,11.13
2023-02-21T17:14:35.700Z,11.07
2023-02-21T17:17:03.132Z,11.04
2023-02-21T17:19:30.642Z,10.99
2023-02-21T17:22:00.283Z,10.99
2023-02-21T17:24:27.903Z,10.97
2023-02-21T17:26:55.410Z,10.97
2023-02-21T17:29:23.540Z,10.95
2023-02-21T17:31:55.508Z,11.00
2023-02-21T17:34:23.133Z,10.93
2023-02-21T17:36:51.692Z,10.86
2023-02-21T17:39:21.523Z,10.84
2023-02-21T17:41:50.241Z,10.80
2023-02-21T17:44:18.853Z,10.80
2023-02-21T17:46:51.484Z,10.78
2023-02-21T17:49:22.047Z,10.76
2023-02-21T17:51:50.368Z,10.76
2023-02-21T17:54:19.795Z,10.70
2023-02-21T17:56:48.113Z,10.68
2023-02-21T17:59:16.494Z,10.65
2023-02-21T18:01:44.203Z,10.61
2023-02-21T18:04:13.725Z,10.58
2023-02-21T18:06:42.572Z,10.55
2023-02-21T18:09:11.339Z,10.51
2023-02-21T18:11:39.153Z,10.46
2023-02-21T18:14:06.559Z,10.43
2023-02-21T18:16:33.983Z,10.66
2023-02-21T18:19:01.277Z,10.72
2023-02-21T18:21:29.230Z,10.66
2023-02-21T18:23:56.793Z,10.69
2023-02-21T18:26:24.546Z,10.63
2023-02-21T18:28:52.053Z,10.57
2023-02-21T18:31:20.710Z,10.63
2023-02-21T18:33:49.622Z,10.52
2023-02-21T18:36:18.091Z,10.37
2023-02-21T18:38:45.521Z,10.19
2023-02-21T18:41:14.980Z,10.13
2023-02-21T18:43:44.138Z,10.09
2023-02-21T18:46:16.893Z,10.10
2023-02-21T18:48:47.621Z,10.16
2023-02-21T18:51:19.633Z,10.12
2023-02-21T18:53:51.100Z,10.02
2023-02-21T18:56:20.064Z,9.92
2023-02-21T18:58:49.575Z,9.89
2023-02-21T19:01:20.876Z,9.88
2023-02-21T19:03:52.969Z,9.89
2023-02-21T19:06:22.583Z,9.84
2023-02-21T19:08:54.370Z,9.78
2023-02-21T19:11:22.307Z,9.85
2023-02-21T19:13:50.551Z,9.74
2023-02-21T19:16:20.403Z,9.69
2023-02-21T19:18:50.443Z,9.67
2023-02-21T19:21:18.179Z,9.63
2023-02-21T19:23:45.901Z,9.59
2023-02-21T19:26:13.431Z,9.63
2023-02-21T19:28:40.931Z,9.67
2023-02-21T19:31:14.807Z,9.70
2023-02-21T19:33:43.797Z,9.79
2023-02-21T19:36:12.322Z,9.74
2023-02-21T19:38:41.373Z,9.65
2023-02-21T19:41:09.205Z,9.56
2023-02-21T19:43:36.747Z,9.55
2023-02-21T19:46:04.457Z,9.51
2023-02-21T19:48:31.902Z,9.51
2023-02-21T19:50:59.345Z,9.49
2023-02-21T19:53:26.713Z,9.49
2023-02-21T19:55:54.155Z,9.49
2023-02-21T19:58:21.933Z,9.49
2023-02-21T20:00:50.815Z,9.51
2023-02-21T20:03:18.401Z,9.50
2023-02-21T20:05:45.820Z,9.52
2023-02-21T20:08:13.300Z,9.52
2023-02-21T20:10:40.726Z,9.51
2023-02-21T20:13:08.560Z,9.47
2023-02-21T20:15:36.586Z,9.42
2023-02-21T20:18:04.767Z,9.39
2023-02-21T20:20:32.264Z,9.37
2023-02-21T20:23:02.255Z,9.36
2023-02-21T20:25:30.497Z,9.35
2023-02-21T20:27:57.968Z,9.32
2023-02-21T20:30:25.490Z,9.35
2023-02-21T20:32:53.426Z,9.35
2023-02-21T20:35:20.930Z,9.33
2023-02-21T20:37:48.449Z,9.31
2023-02-21T20:40:16.071Z,9.28
2023-02-21T20:42:43.709Z,9.27
2023-02-21T20:45:11.635Z,9.21
2023-02-21T20:47:39.518Z,9.17
2023-02-21T20:50:07.599Z,9.10
2023-02-21T20:52:35.246Z,9.10
2023-02-21T20:55:03.199Z,9.11
2023-02-21T20:57:30.890Z,9.09
2023-02-21T20:59:58.357Z,9.06
2023-02-21T21:02:25.817Z,8.99
2023-02-21T21:04:54.470Z,8.96
2023-02-21T21:07:23.424Z,8.98
2023-02-21T21:09:51.465Z,8.98
2023-02-21T21:12:22.015Z,8.94
2023-02-21T21:14:53.296Z,8.95
2023-02-21T21:17:21.332Z,8.98
2023-02-21T21:19:49.672Z,9.02
2023-02-21T21:22:21.963Z,9.01
2023-02-21T21:24:51.290Z,9.00
2023-02-21T21:27:19.768Z,9.00
2023-02-21T21:29:48.749Z,8.99
2023-02-21T21:32:19.029Z,9.00
2023-02-21T21:34:49.287Z,9.01
2023-02-21T21:37:19.727Z,9.02
2023-02-21T21:40:11.584Z,9.06
2023-02-21T21:42:39.286Z,9.10
2023-02-21T21:45:08.521Z,9.14
2023-02-21T21:47:37.471Z,9.12
2023-02-21T21:50:06.103Z,9.09
2023-02-21T21:52:33.663Z,9.06
2023-02-21T21:55:02.450Z,9.04
2023-02-21T21:57:29.929Z,9.02
2023-02-21T21:59:57.265Z,9.03
2023-02-21T22:02:24.762Z,9.04
2023-02-21T22:04:55.453Z,9.03
2023-02-21T22:07:23.067Z,8.98
2023-02-21T22:09:50.477Z,8.95
2023-02-21T22:12:19.096Z,8.95
2023-02-21T22:14:46.478Z,9.00
2023-02-21T22:17:13.807Z,9.00
2023-02-21T22:19:41.573Z,8.99
2023-02-21T22:22:09.085Z,9.00
2023-02-21T22:24:40.693Z,8.98
2023-02-21T22:27:08.149Z,8.99
2023-02-21T22:29:35.937Z,9.00
2023-02-21T22:32:03.701Z,9.01
2023-02-21T22:34:31.553Z,9.01
2023-02-21T22:36:59.144Z,9.01
2023-02-21T22:39:27.421Z,8.97
2023-02-21T22:41:55.004Z,8.93
2023-02-21T22:44:25.191Z,8.86
2023-02-21T22:47:00.016Z,8.83
2023-02-21T22:49:28.476Z,8.76
2023-02-21T22:51:57.786Z,8.71
2023-02-21T22:54:26.358Z,8.59
2023-02-21T22:56:55.195Z,8.54
2023-02-21T22:59:24.465Z,8.42
2023-02-21T23:01:53.145Z,8.33
2023-02-21T23:04:25.990Z,8.25
2023-02-21T23:07:01.563Z,8.16
2023-02-21T23:09:30.574Z,8.10
2023-02-21T23:12:00.159Z,8.07
2023-02-21T23:14:31.732Z,8.07
2023-02-21T23:16:59.883Z,7.98
2023-02-21T23:19:29.318Z,7.93
2023-02-21T23:21:57.961Z,7.96
2023-02-21T23:24:25.791Z,7.96
2023-02-21T23:26:54.843Z,7.94
2023-02-21T23:29:25.226Z,7.90
2023-02-21T23:31:56.900Z,7.86
2023-02-21T23:34:40.225Z,7.77
2023-02-21T23:37:12.388Z,7.78
2023-02-21T23:39:41.868Z,7.67
2023-02-21T23:42:11.116Z,7.64
2023-02-21T23:44:39.205Z,7.59
2023-02-21T23:47:06.619Z,7.55
2023-02-21T23:49:34.028Z,7.50
2023-02-21T23:52:02.036Z,7.50
2023-02-21T23:54:29.812Z,7.49
2023-02-21T23:57:00.919Z,7.49
2023-02-21T23:59:28.935Z,7.51
